Aviation Digital Data Service (ADDS)

Output produced by METARs form (1810 UTC 19 August 2019)
found at http://www.aviationweather.gov/metar/data/
 
Forecast for: RJOK (KOCHI AIRPORT , JP)
Text: TAF RJOK 191709Z 1918/2100 35005KT 9999 FEW015 BKN035
Forecast period: 1800 to 2300 UTC 19 August 2019
Forecast type: FROM: standard forecast or significant change
Winds: from the N (350 degrees) at 6 MPH (5 knots; 2.6 m/s)
Visibility: 6 or more miles 10+ km)
Ceiling: 3500 feet AGL
Clouds: few clouds at 1500 feet AGL
broken clouds at 3500 feet AGL
Weather: no significant weather forecast for this period
Text: BECMG 1923/2001 17006KT
Forecast period: 2300 UTC 19 August 2019 to 0900 UTC 20 August 2019
Forecast type: BECOMING: Conditions expected to become as follows by 0100 UTC 20 August 2019
Winds: from the S (170 degrees) at 7 MPH (6 knots; 3.1 m/s)
Visibility: 6 or more miles 10+ km)
Ceiling: 3500 feet AGL
Clouds: few clouds at 1500 feet AGL
broken clouds at 3500 feet AGL
Weather: no significant weather forecast for this period
Text: BECMG 2009/2012 35005KT
Forecast period: 0900 UTC 20 August 2019 to 0000 UTC 21 August 2019
Forecast type: BECOMING: Conditions expected to become as follows by 1200 UTC 20 August 2019
Winds: from the N (350 degrees) at 6 MPH (5 knots; 2.6 m/s)
Visibility: 6 or more miles 10+ km)
Ceiling: 3500 feet AGL
Clouds: few clouds at 1500 feet AGL
broken clouds at 3500 feet AGL
Weather: no significant weather forecast for this period